Time;durP1;ratioP1;P1;durP2;ratioP2;P2;SDS_P1;SDS_P2;PMS_P1;PMS_P2;Temp;Humidity;BMP_temperature;BMP_pressure;BME280_temperature;BME280_humidity;BME280_pressure;Samples;Min_cycle;Max_cycle;Signal;HPM_P1;HPM_P2
2021/01/24 00:02:04;;;;;;;;;;;;;;;22.16;27.56;96979.22;5100197;28;1111;-75
2021/01/24 00:04:30;;;;;;;;;;;;;;;21.89;27.80;96976.38;5100264;28;1914;-75
2021/01/24 00:07:01;;;;;;;;;;;;;;;21.54;28.26;96962.50;5100541;28;1089;-76
2021/01/24 00:09:30;;;;;;;;;;;;;;;21.47;28.65;96979.78;5100177;28;701;-75
2021/01/24 00:11:56;;;;;;;;;;;;;;;22.02;28.11;96959.97;5100055;28;875;-75
2021/01/24 00:14:21;;;;;;;;;;;;;;;22.09;27.98;96968.19;5082451;28;849;-75
2021/01/24 00:16:47;;;;;;;;;;;;;;;22.08;28.08;96969.44;5100321;28;1009;-75
2021/01/24 00:19:12;;;;;;;;;;;;;;;22.05;27.84;96956.22;5100192;28;675;-76
2021/01/24 00:21:38;;;;;;;;;;;;;;;21.45;28.79;96970.97;5100415;28;618;-75
2021/01/24 00:24:04;;;;;;;;;;;;;;;21.27;28.73;96974.50;5099986;28;1965;-76
2021/01/24 00:26:29;;;;;;;;;;;;;;;21.51;28.46;96969.09;5100112;28;864;-76
2021/01/24 00:28:55;;;;;;;;;;;;;;;21.74;28.75;96962.03;5099829;28;910;-75
2021/01/24 00:31:20;;;;;;;;;;;;;;;21.85;28.44;96965.97;5100290;28;841;-75
2021/01/24 00:33:45;;;;;;;;;;;;;;;22.07;27.80;96965.00;5100570;28;674;-75
2021/01/24 00:36:12;;;;;;;;;;;;;;;22.10;27.79;96969.75;5100455;28;689;-75
2021/01/24 00:38:37;;;;;;;;;;;;;;;22.12;27.91;96972.91;5099828;28;653;-76
2021/01/24 00:41:04;;;;;;;;;;;;;;;21.68;28.01;96961.88;5099909;28;960;-76
2021/01/24 00:43:30;;;;;;;;;;;;;;;21.52;28.37;96959.34;5099786;28;1882;-75
2021/01/24 00:45:56;;;;;;;;;;;;;;;21.61;28.86;96956.53;5100231;28;899;-75
2021/01/24 00:48:21;;;;;;;;;;;;;;;21.91;28.29;96956.84;5083505;28;1129;-75
2021/01/24 00:50:46;;;;;;;;;;;;;;;22.08;27.94;96956.06;5104038;28;666;-75
2021/01/24 00:53:12;;;;;;;;;;;;;;;22.16;28.02;96945.22;5086346;28;1452;-76
2021/01/24 00:55:38;;;;;;;;;;;;;;;22.20;27.83;96951.50;5103419;28;1088;-75
2021/01/24 00:58:03;;;;;;;;;;;;;;;21.64;28.13;96949.91;5103434;28;942;-75
2021/01/24 01:00:28;;;;;;;;;;;;;;;21.45;28.59;96945.50;5103351;28;960;-76
2021/01/24 01:02:54;;;;;;;;;;;;;;;21.59;28.58;96953.38;5103397;28;651;-76
2021/01/24 01:05:20;;;;;;;;;;;;;;;22.02;28.07;96946.63;5103292;28;1984;-76
2021/01/24 01:07:45;;;;;;;;;;;;;;;22.36;27.60;96945.50;5103568;28;674;-76
2021/01/24 01:10:11;;;;;;;;;;;;;;;22.04;27.89;96954.66;5103188;28;1018;-76
2021/01/24 01:12:36;;;;;;;;;;;;;;;22.28;27.35;96947.09;5085951;28;919;-75
2021/01/24 01:15:02;;;;;;;;;;;;;;;22.21;27.48;96938.91;5103410;28;987;-76
2021/01/24 01:17:28;;;;;;;;;;;;;;;21.58;28.47;96940.47;5103130;28;709;-75
2021/01/24 01:19:53;;;;;;;;;;;;;;;21.51;28.40;96943.63;5103371;28;875;-76
2021/01/24 01:22:19;;;;;;;;;;;;;;;21.59;28.46;96945.66;5103237;28;694;-76
2021/01/24 01:24:44;;;;;;;;;;;;;;;21.92;27.99;96932.94;5102747;28;1926;-75
2021/01/24 01:27:10;;;;;;;;;;;;;;;22.17;27.40;96946.78;5102888;28;832;-75
2021/01/24 01:29:35;;;;;;;;;;;;;;;22.22;27.61;96937.66;5102823;28;1013;-76
2021/01/24 01:32:00;;;;;;;;;;;;;;;21.99;27.83;96938.28;5103354;28;670;-76
2021/01/24 01:34:26;;;;;;;;;;;;;;;21.54;28.39;96928.53;5102665;28;798;-75
2021/01/24 01:37:10;;;;;;;;;;;;;;;21.37;28.50;96935.75;5103071;28;717;-75
2021/01/24 01:39:39;;;;;;;;;;;;;;;21.65;28.62;96937.34;5102301;28;835;-75
2021/01/24 01:42:11;;;;;;;;;;;;;;;22.07;28.03;96931.03;5102626;28;825;-75
2021/01/24 01:44:37;;;;;;;;;;;;;;;22.34;27.29;96938.75;5102405;28;1901;-75
2021/01/24 01:47:02;;;;;;;;;;;;;;;22.19;27.57;96932.94;5102915;28;646;-76
2021/01/24 01:49:30;;;;;;;;;;;;;;;21.66;28.03;96929.63;5085287;28;650;-75
2021/01/24 01:51:56;;;;;;;;;;;;;;;21.37;28.19;96922.38;5102657;28;642;-75
2021/01/24 01:54:21;;;;;;;;;;;;;;;21.64;28.37;96926.50;5102050;28;836;-75
2021/01/24 01:56:47;;;;;;;;;;;;;;;21.96;27.98;96913.72;5102485;28;987;-75
2021/01/24 01:59:12;;;;;;;;;;;;;;;22.08;27.76;96915.63;5084564;28;943;-76
2021/01/24 02:01:46;;;;;;;;;;;;;;;22.05;27.81;96922.22;5101845;28;1000;-75
2021/01/24 02:04:15;;;;;;;;;;;;;;;22.25;27.55;96908.38;5084676;28;1905;-75
2021/01/24 02:06:44;;;;;;;;;;;;;;;21.81;27.79;96920.06;5102778;28;660;-75
2021/01/24 02:09:21;;;;;;;;;;;;;;;21.41;28.28;96930.72;5084325;28;854;-76
2021/01/24 02:12:05;;;;;;;;;;;;;;;21.65;28.36;96923.19;5102165;28;892;-76
2021/01/24 02:14:31;;;;;;;;;;;;;;;22.05;27.82;96916.56;5102029;28;690;-75
2021/01/24 02:16:58;;;;;;;;;;;;;;;22.21;27.36;96916.25;5084684;28;677;-77
2021/01/24 02:19:24;;;;;;;;;;;;;;;22.23;27.24;96902.41;5084396;28;594;-77
2021/01/24 02:21:50;;;;;;;;;;;;;;;21.85;27.93;96898.00;5084498;28;698;-78
2021/01/24 02:24:15;;;;;;;;;;;;;;;21.56;27.99;96900.56;5101430;28;1964;-75
2021/01/24 02:26:59;;;;;;;;;;;;;;;21.48;28.55;96896.44;5084131;28;892;-75
2021/01/24 02:29:28;;;;;;;;;;;;;;;21.97;28.01;96887.00;5101720;28;1071;-75
2021/01/24 02:31:54;;;;;;;;;;;;;;;22.14;27.49;96891.09;5101769;28;705;-76
2021/01/24 02:34:20;;;;;;;;;;;;;;;22.28;27.31;96890.44;5101868;28;709;-75
2021/01/24 02:36:45;;;;;;;;;;;;;;;22.28;27.02;96883.97;5084387;28;701;-75
2021/01/24 02:39:11;;;;;;;;;;;;;;;22.10;27.59;96870.59;5084079;28;927;-75
2021/01/24 02:41:36;;;;;;;;;;;;;;;21.56;28.11;96880.75;5083747;28;855;-76
2021/01/24 02:44:04;;;;;;;;;;;;;;;21.26;28.60;96869.06;5083942;28;1938;-76
2021/01/24 02:46:30;;;;;;;;;;;;;;;21.62;28.52;96878.84;5084220;28;1279;-76
2021/01/24 02:48:55;;;;;;;;;;;;;;;21.93;28.07;96869.38;5083719;28;630;-75
2021/01/24 02:51:21;;;;;;;;;;;;;;;21.99;27.65;96870.31;5101742;28;689;-75
2021/01/24 02:53:53;;;;;;;;;;;;;;;21.92;27.78;96862.94;5101266;28;926;-76
2021/01/24 02:56:21;;;;;;;;;;;;;;;22.30;27.34;96859.56;5101187;28;947;-75
2021/01/24 02:58:46;;;;;;;;;;;;;;;21.83;27.63;96858.06;5083686;28;1000;-76
2021/01/24 03:01:12;;;;;;;;;;;;;;;21.28;28.34;96855.22;5101575;28;965;-75
2021/01/24 03:03:38;;;;;;;;;;;;;;;21.60;28.43;96858.69;5100859;28;1905;-76
2021/01/24 03:06:03;;;;;;;;;;;;;;;21.83;28.01;96843.13;5083911;28;745;-75
2021/01/24 03:08:29;;;;;;;;;;;;;;;22.03;27.82;96842.63;5100547;28;994;-75
2021/01/24 03:10:54;;;;;;;;;;;;;;;22.30;27.27;96842.53;5100611;28;994;-76
2021/01/24 03:13:20;;;;;;;;;;;;;;;22.06;27.44;96833.16;5083256;28;913;-76
2021/01/24 03:15:45;;;;;;;;;;;;;;;21.59;28.26;96834.50;5101153;28;598;-76
2021/01/24 03:18:12;;;;;;;;;;;;;;;21.33;28.48;96826.31;5083349;28;622;-75
2021/01/24 03:20:39;;;;;;;;;;;;;;;21.53;28.41;96825.06;5083797;28;687;-76
2021/01/24 03:23:05;;;;;;;;;;;;;;;21.97;28.06;96830.34;5082980;28;1062;-75
2021/01/24 03:25:30;;;;;;;;;;;;;;;22.14;27.46;96834.41;5083053;28;2016;-75
2021/01/24 03:27:55;;;;;;;;;;;;;;;22.10;27.65;96828.91;5100743;28;875;-75
2021/01/24 03:30:21;;;;;;;;;;;;;;;22.07;27.56;96823.38;5083423;28;733;-76
2021/01/24 03:32:46;;;;;;;;;;;;;;;21.66;28.07;96817.19;5101007;28;614;-76
2021/01/24 03:35:12;;;;;;;;;;;;;;;21.56;28.25;96807.16;5100591;28;614;-76
2021/01/24 03:37:52;;;;;;;;;;;;;;;21.62;28.50;96810.91;5100544;28;880;-75
2021/01/24 03:40:18;;;;;;;;;;;;;;;22.06;27.68;96804.81;5100271;28;886;-76
2021/01/24 03:42:43;;;;;;;;;;;;;;;22.05;28.01;96806.09;5100816;28;868;-75
2021/01/24 03:45:09;;;;;;;;;;;;;;;22.01;27.76;96808.28;5100683;28;1965;-75
2021/01/24 03:47:35;;;;;;;;;;;;;;;21.90;27.89;96802.34;5100797;28;714;-75
2021/01/24 03:50:00;;;;;;;;;;;;;;;21.64;28.24;96808.38;5100777;28;694;-76
2021/01/24 03:52:25;;;;;;;;;;;;;;;21.28;28.57;96815.59;5100364;28;920;-75
2021/01/24 03:54:51;;;;;;;;;;;;;;;21.78;28.39;96807.72;5100160;28;1005;-76
2021/01/24 03:57:16;;;;;;;;;;;;;;;21.97;28.25;96799.97;5101142;28;900;-76
2021/01/24 03:59:42;;;;;;;;;;;;;;;22.19;27.52;96796.94;5100297;28;662;-76
2021/01/24 04:02:07;;;;;;;;;;;;;;;22.31;27.37;96790.28;5100364;28;1052;-75
2021/01/24 04:04:33;;;;;;;;;;;;;;;21.88;28.06;96777.34;5100242;28;1968;-76
2021/01/24 04:06:58;;;;;;;;;;;;;;;21.54;28.46;96781.34;5100349;28;932;-75
2021/01/24 04:09:23;;;;;;;;;;;;;;;21.51;28.57;96782.31;5100020;28;840;-75
2021/01/24 04:11:49;;;;;;;;;;;;;;;22.03;27.81;96783.13;5100408;28;804;-76
2021/01/24 04:14:14;;;;;;;;;;;;;;;22.10;27.98;96788.44;5100339;28;590;-76
2021/01/24 04:16:40;;;;;;;;;;;;;;;22.33;27.46;96796.25;5100481;28;729;-76
2021/01/24 04:19:05;;;;;;;;;;;;;;;21.89;28.06;96798.75;5100109;28;697;-76
2021/01/24 04:21:31;;;;;;;;;;;;;;;21.43;28.54;96792.38;5100348;28;911;-75
2021/01/24 04:23:56;;;;;;;;;;;;;;;21.42;29.20;96793.63;5101885;28;1890;-75
2021/01/24 04:26:22;;;;;;;;;;;;;;;21.83;28.46;96798.59;5104485;28;810;-75
2021/01/24 04:28:48;;;;;;;;;;;;;;;22.11;27.78;96801.38;5104182;28;721;-76
2021/01/24 04:31:14;;;;;;;;;;;;;;;22.14;27.84;96806.09;5104370;28;643;-75
2021/01/24 04:33:39;;;;;;;;;;;;;;;22.09;27.91;96810.31;5103819;28;638;-76
2021/01/24 04:36:06;;;;;;;;;;;;;;;21.90;28.03;96802.34;5104015;28;969;-76
2021/01/24 04:38:31;;;;;;;;;;;;;;;21.48;28.59;96803.06;5103501;28;919;-75
2021/01/24 04:40:56;;;;;;;;;;;;;;;21.31;28.82;96802.59;5104014;28;884;-76
2021/01/24 04:43:22;;;;;;;;;;;;;;;21.60;28.79;96802.09;5103670;28;690;-76
2021/01/24 04:45:48;;;;;;;;;;;;;;;21.84;28.01;96794.50;5104153;28;1963;-76
2021/01/24 04:48:13;;;;;;;;;;;;;;;21.93;28.24;96793.69;5103919;28;674;-76
2021/01/24 04:50:38;;;;;;;;;;;;;;;22.02;28.06;96781.53;5103311;28;1187;-76
2021/01/24 04:53:04;;;;;;;;;;;;;;;22.04;28.01;96781.84;5085824;28;880;-76
2021/01/24 04:55:29;;;;;;;;;;;;;;;21.78;28.21;96779.41;5103634;28;976;-76
2021/01/24 04:57:55;;;;;;;;;;;;;;;21.51;28.20;96776.66;5103636;28;738;-75
2021/01/24 05:00:21;;;;;;;;;;;;;;;21.50;28.42;96775.06;5103560;28;969;-77
2021/01/24 05:02:46;;;;;;;;;;;;;;;21.87;28.23;96777.84;5103980;28;590;-77
2021/01/24 05:05:12;;;;;;;;;;;;;;;21.96;28.11;96772.13;5086312;28;1973;-76
2021/01/24 05:07:56;;;;;;;;;;;;;;;22.05;27.55;96777.75;5086355;28;853;-76
2021/01/24 05:10:30;;;;;;;;;;;;;;;21.76;27.87;96781.94;5103547;28;836;-77
2021/01/24 05:12:56;;;;;;;;;;;;;;;21.49;28.41;96784.81;5103856;28;697;-77
2021/01/24 05:15:21;;;;;;;;;;;;;;;21.37;28.47;96788.59;5103582;28;642;-76
2021/01/24 05:17:50;;;;;;;;;;;;;;;21.61;28.57;96785.91;5085873;28;801;-77
2021/01/24 05:20:17;;;;;;;;;;;;;;;21.85;28.29;96784.72;5103657;28;689;-77
2021/01/24 05:22:42;;;;;;;;;;;;;;;21.93;28.13;96790.09;5103555;28;856;-77
2021/01/24 05:25:08;;;;;;;;;;;;;;;22.21;27.63;96800.06;5085564;28;2220;-77
2021/01/24 05:27:33;;;;;;;;;;;;;;;22.03;27.49;96800.13;5086289;28;884;-76
2021/01/24 05:29:59;;;;;;;;;;;;;;;21.60;28.24;96787.94;5085767;28;626;-76
2021/01/24 05:32:24;;;;;;;;;;;;;;;21.41;28.68;96794.91;5103607;28;619;-77
2021/01/24 05:34:51;;;;;;;;;;;;;;;21.76;28.42;96796.09;5103100;28;658;-77
2021/01/24 05:37:16;;;;;;;;;;;;;;;21.94;28.05;96798.09;5085931;28;1024;-77
2021/01/24 05:39:42;;;;;;;;;;;;;;;21.85;28.39;96803.78;5102737;28;916;-77
2021/01/24 05:42:17;;;;;;;;;;;;;;;22.17;27.72;96798.66;5103428;28;1058;-77
2021/01/24 05:44:42;;;;;;;;;;;;;;;21.68;28.41;96786.34;5085357;28;1906;-76
2021/01/24 05:47:07;;;;;;;;;;;;;;;21.31;28.43;96792.06;5085881;28;1219;-76
2021/01/24 05:49:33;;;;;;;;;;;;;;;21.52;28.82;96795.19;5085731;28;1132;-76
2021/01/24 05:51:59;;;;;;;;;;;;;;;22.01;27.82;96788.47;5103014;28;977;-77
2021/01/24 05:54:41;;;;;;;;;;;;;;;22.26;27.38;96785.25;5067953;28;1127;-76
2021/01/24 05:57:07;;;;;;;;;;;;;;;22.38;27.16;96774.19;5085675;28;808;-76
2021/01/24 05:59:48;;;;;;;;;;;;;;;22.36;27.08;96783.94;5102831;28;712;-76
2021/01/24 06:02:13;;;;;;;;;;;;;;;21.78;27.93;96775.81;5103226;28;1233;-77
2021/01/24 06:04:38;;;;;;;;;;;;;;;21.38;28.47;96784.50;5103045;28;1909;-76
2021/01/24 06:07:04;;;;;;;;;;;;;;;21.32;28.55;96782.31;5085129;28;1004;-76
2021/01/24 06:09:32;;;;;;;;;;;;;;;21.72;28.26;96778.50;5102256;28;812;-76
2021/01/24 06:11:58;;;;;;;;;;;;;;;22.01;28.03;96774.31;5102970;28;856;-77
2021/01/24 06:14:23;;;;;;;;;;;;;;;22.22;27.48;96784.63;5084934;28;834;-77
2021/01/24 06:16:49;;;;;;;;;;;;;;;22.12;27.80;96785.16;5085404;28;649;-77
2021/01/24 06:19:14;;;;;;;;;;;;;;;21.70;28.14;96783.81;5084757;28;614;-77
2021/01/24 06:21:45;;;;;;;;;;;;;;;21.52;28.35;96789.53;5085047;28;982;-77
2021/01/24 06:24:13;;;;;;;;;;;;;;;21.63;28.35;96789.81;5084413;28;1909;-76
2021/01/24 06:26:39;;;;;;;;;;;;;;;22.07;28.63;96800.72;5068727;28;857;-76
2021/01/24 06:29:04;;;;;;;;;;;;;;;22.75;27.93;96806.75;5084581;28;646;-77
2021/01/24 06:31:30;;;;;;;;;;;;;;;22.30;28.38;96808.53;5084843;28;630;-76
2021/01/24 06:33:55;;;;;;;;;;;;;;;21.71;28.82;96808.06;5102305;28;654;-78
2021/01/24 06:36:21;;;;;;;;;;;;;;;21.43;29.04;96798.03;5084400;28;1241;-77
2021/01/24 06:38:53;;;;;;;;;;;;;;;21.88;28.75;96804.88;5101726;28;908;-76
2021/01/24 06:41:38;;;;;;;;;;;;;;;22.03;28.81;96800.13;5102300;28;888;-77
2021/01/24 06:44:03;;;;;;;;;;;;;;;22.19;28.71;96802.59;5101457;28;1910;-77
2021/01/24 06:46:31;;;;;;;;;;;;;;;21.98;28.74;96795.09;5101650;28;694;-76
2021/01/24 06:48:57;;;;;;;;;;;;;;;21.49;29.29;96802.56;5101637;28;670;-76
2021/01/24 06:51:36;;;;;;;;;;;;;;;21.51;29.25;96807.78;5101857;28;897;-75
2021/01/24 06:54:01;;;;;;;;;;;;;;;21.81;29.50;96801.13;5083740;28;960;-76
2021/01/24 06:56:36;;;;;;;;;;;;;;;21.96;29.20;96811.78;5102082;28;634;-76
2021/01/24 06:59:01;;;;;;;;;;;;;;;22.08;28.80;96807.97;5101453;28;648;-76
2021/01/24 07:01:28;;;;;;;;;;;;;;;21.99;28.91;96810.84;5101876;28;1127;-76
2021/01/24 07:04:12;;;;;;;;;;;;;;;21.71;28.95;96819.41;5101500;28;1975;-76
2021/01/24 07:06:39;;;;;;;;;;;;;;;21.50;29.35;96809.00;5102141;28;670;-76
2021/01/24 07:09:23;;;;;;;;;;;;;;;21.42;30.20;96802.13;5101297;28;816;-77
2021/01/24 07:11:50;;;;;;;;;;;;;;;21.94;29.05;96802.97;5101435;28;793;-76
2021/01/24 07:14:34;;;;;;;;;;;;;;;21.98;29.05;96804.38;5083910;28;1257;-77
2021/01/24 07:17:09;;;;;;;;;;;;;;;21.94;28.99;96809.44;5101646;28;689;-76
2021/01/24 07:19:35;;;;;;;;;;;;;;;22.01;28.77;96803.41;5101212;28;651;-77
2021/01/24 07:22:00;;;;;;;;;;;;;;;21.60;29.29;96802.09;5101991;28;615;-76
2021/01/24 07:24:26;;;;;;;;;;;;;;;21.54;29.13;96809.66;5100718;28;1967;-76
2021/01/24 07:26:54;;;;;;;;;;;;;;;21.46;29.96;96802.75;5083879;28;904;-77
2021/01/24 07:29:21;;;;;;;;;;;;;;;22.03;28.89;96806.56;5101118;28;850;-77
2021/01/24 07:31:46;;;;;;;;;;;;;;;22.12;28.61;96808.59;5084195;28;729;-76
2021/01/24 07:34:12;;;;;;;;;;;;;;;22.00;29.07;96806.72;5083549;28;717;-77
2021/01/24 07:36:37;;;;;;;;;;;;;;;21.95;28.53;96815.88;5084011;28;1282;-75
2021/01/24 07:39:03;;;;;;;;;;;;;;;21.51;29.28;96817.06;5100881;28;956;-77
2021/01/24 07:41:31;;;;;;;;;;;;;;;21.59;29.61;96820.34;5101491;28;887;-76
2021/01/24 07:43:56;;;;;;;;;;;;;;;21.84;29.24;96822.81;5083240;28;1909;-76
2021/01/24 07:46:23;;;;;;;;;;;;;;;22.05;28.82;96821.03;5084109;28;709;-76
2021/01/24 07:48:48;;;;;;;;;;;;;;;21.99;28.76;96811.63;5101003;28;678;-77
2021/01/24 09:04:54;;;;;;;;;;;;;;;21.56;28.89;96824.13;6106635;23;1647;31
2021/01/24 09:07:19;;;;;;;;;;;;;;;21.98;28.23;96809.25;4962356;29;1406;-75
2021/01/24 09:09:45;;;;;;;;;;;;;;;22.27;27.56;96815.16;4963849;28;991;-75
2021/01/24 09:12:15;;;;;;;;;;;;;;;22.18;27.69;96820.88;4964531;28;1085;-75
2021/01/24 09:14:40;;;;;;;;;;;;;;;22.04;28.09;96819.47;4974592;28;1196;-74
2021/01/24 09:17:06;;;;;;;;;;;;;;;21.88;27.84;96816.22;4972964;28;1228;-75
2021/01/24 09:19:38;;;;;;;;;;;;;;;21.60;28.44;96821.91;4974556;28;1145;-75
2021/01/24 09:22:04;;;;;;;;;;;;;;;21.57;28.45;96817.22;4977625;28;1133;-75
2021/01/24 09:24:30;;;;;;;;;;;;;;;21.91;28.32;96818.06;4983062;28;1910;-75
2021/01/24 09:26:55;;;;;;;;;;;;;;;21.93;28.08;96824.06;4973305;28;1224;-75
2021/01/24 09:29:21;;;;;;;;;;;;;;;22.07;27.74;96818.53;4964345;29;644;-75
2021/01/24 09:31:46;;;;;;;;;;;;;;;22.12;27.75;96830.47;4965848;28;1145;-75
2021/01/24 09:34:12;;;;;;;;;;;;;;;21.82;27.83;96822.50;4973343;28;1156;-75
2021/01/24 09:36:37;;;;;;;;;;;;;;;21.70;27.93;96823.47;4974535;28;1200;-74
2021/01/24 09:39:03;;;;;;;;;;;;;;;21.42;28.39;96824.75;4971385;28;1192;-74
2021/01/24 09:41:29;;;;;;;;;;;;;;;21.77;28.38;96830.88;4973514;28;1109;-75
2021/01/24 09:43:54;;;;;;;;;;;;;;;22.00;27.83;96829.38;4974226;28;1976;-75
2021/01/24 09:46:20;;;;;;;;;;;;;;;22.16;27.53;96831.09;4972853;28;1133;-75
2021/01/24 09:48:46;;;;;;;;;;;;;;;22.22;27.64;96829.19;4973248;28;1192;-75
2021/01/24 09:51:11;;;;;;;;;;;;;;;21.94;27.67;96832.06;4974079;28;1173;-75
2021/01/24 09:53:37;;;;;;;;;;;;;;;21.57;28.08;96825.69;4971804;28;1048;-75
2021/01/24 09:56:03;;;;;;;;;;;;;;;21.44;28.30;96837.16;4973433;28;1136;-75
2021/01/24 09:58:29;;;;;;;;;;;;;;;21.68;28.24;96842.97;4973560;28;1137;-73
2021/01/24 10:00:54;;;;;;;;;;;;;;;21.89;27.93;96840.44;4972354;28;1385;-75
2021/01/24 10:03:20;;;;;;;;;;;;;;;22.03;27.56;96846.22;4973568;28;1204;-75
2021/01/24 10:05:45;;;;;;;;;;;;;;;22.12;27.46;96848.25;4972711;28;1890;-75
2021/01/24 10:08:42;;;;;;;;;;;;;;;21.73;28.09;96841.56;4971781;28;1357;-75
2021/01/24 10:11:21;;;;;;;;;;;;;;;21.57;28.29;96848.34;4968267;28;1065;-74
2021/01/24 10:13:47;;;;;;;;;;;;;;;21.65;28.49;96835.41;4963447;29;647;-74
2021/01/24 10:16:12;;;;;;;;;;;;;;;22.02;27.55;96832.53;4963599;29;690;-74
2021/01/24 10:18:38;;;;;;;;;;;;;;;22.02;27.57;96826.84;4963393;29;674;-74
2021/01/24 10:21:03;;;;;;;;;;;;;;;22.01;27.75;96839.44;4962185;28;855;-75
2021/01/24 10:23:39;;;;;;;;;;;;;;;22.01;27.35;96842.28;4962974;29;1015;-75
2021/01/24 10:26:05;;;;;;;;;;;;;;;21.60;27.90;96836.06;4963423;29;662;-75
2021/01/24 10:28:30;;;;;;;;;;;;;;;21.36;28.46;96838.75;4963495;29;695;-73
2021/01/24 10:30:56;;;;;;;;;;;;;;;21.68;28.07;96834.47;4966043;28;1109;-75
2021/01/24 10:33:21;;;;;;;;;;;;;;;21.88;27.69;96833.19;4971284;28;1192;-75
2021/01/24 10:35:49;;;;;;;;;;;;;;;22.05;27.55;96826.69;4958394;28;1209;-77
2021/01/24 10:38:15;;;;;;;;;;;;;;;22.02;27.42;96816.34;4972553;28;1188;-77
2021/01/24 10:40:57;;;;;;;;;;;;;;;22.26;27.33;96830.59;4955777;28;1268;-77
2021/01/24 10:43:22;;;;;;;;;;;;;;;21.93;27.22;96829.72;4971107;28;1338;-77
2021/01/24 10:45:48;;;;;;;;;;;;;;;21.43;28.22;96826.31;4972640;28;1985;-75
2021/01/24 10:48:13;;;;;;;;;;;;;;;21.42;28.59;96825.53;4972594;28;1157;-75
2021/01/24 10:50:39;;;;;;;;;;;;;;;22.16;28.25;96826.22;4971512;28;1338;-76
2021/01/24 10:53:05;;;;;;;;;;;;;;;22.77;27.91;96829.72;4972487;28;1109;-75
2021/01/24 10:55:31;;;;;;;;;;;;;;;22.24;28.33;96827.47;4971949;28;1247;-73
2021/01/24 10:57:56;;;;;;;;;;;;;;;22.04;28.16;96825.13;4971263;28;1204;-75
2021/01/24 11:00:22;;;;;;;;;;;;;;;21.25;29.32;96830.72;4972980;28;1318;-75
2021/01/24 11:02:47;;;;;;;;;;;;;;;21.76;29.21;96832.91;4971596;28;1116;-75
2021/01/24 11:05:13;;;;;;;;;;;;;;;22.19;28.66;96833.78;4971235;28;1902;-75
2021/01/24 11:07:38;;;;;;;;;;;;;;;22.22;28.69;96840.53;4972905;28;1212;-75
2021/01/24 11:10:04;;;;;;;;;;;;;;;22.06;28.80;96833.16;4970653;28;1204;-75
2021/01/24 11:12:30;;;;;;;;;;;;;;;21.65;29.03;96826.94;4971968;28;1204;-75
2021/01/24 11:14:55;;;;;;;;;;;;;;;21.50;29.41;96831.66;4972372;28;1184;-75
2021/01/24 11:17:21;;;;;;;;;;;;;;;21.77;29.14;96828.03;4970832;28;1307;-75
2021/01/24 11:19:50;;;;;;;;;;;;;;;22.10;28.78;96822.44;4972275;28;1152;-75
2021/01/24 11:22:16;;;;;;;;;;;;;;;22.10;28.88;96816.78;4969907;28;1235;-75
2021/01/24 11:24:42;;;;;;;;;;;;;;;22.19;28.55;96808.28;4972032;28;1910;-75
2021/01/24 11:27:07;;;;;;;;;;;;;;;21.76;29.22;96787.63;4971328;28;1113;-75
2021/01/24 11:29:33;;;;;;;;;;;;;;;21.66;28.96;96783.22;4971240;28;1141;-75
2021/01/24 11:31:58;;;;;;;;;;;;;;;21.50;29.90;96780.72;4964619;28;1153;-75
2021/01/24 11:34:24;;;;;;;;;;;;;;;21.89;29.25;96793.06;4964490;28;1062;-75
2021/01/24 11:36:49;;;;;;;;;;;;;;;21.96;29.12;96789.13;4962272;29;852;-76
2021/01/24 11:39:15;;;;;;;;;;;;;;;22.36;28.77;96789.63;4961730;29;1047;-75
2021/01/24 11:41:40;;;;;;;;;;;;;;;21.74;29.39;96778.78;4962570;29;981;-75
2021/01/24 11:44:06;;;;;;;;;;;;;;;21.39;29.85;96786.06;4961877;29;1883;-74
2021/01/24 11:46:31;;;;;;;;;;;;;;;21.29;29.77;96794.53;4962212;29;469;-75
2021/01/24 11:48:57;;;;;;;;;;;;;;;21.77;29.55;96794.84;4961973;29;715;-74
2021/01/24 11:51:22;;;;;;;;;;;;;;;22.23;28.76;96794.72;4961730;29;836;-75
2021/01/24 11:53:48;;;;;;;;;;;;;;;22.40;28.72;96794.34;4961608;29;828;-75
2021/01/24 11:56:14;;;;;;;;;;;;;;;22.15;29.08;96795.53;4962319;29;867;-73
2021/01/24 11:58:39;;;;;;;;;;;;;;;21.82;29.42;96785.72;4961975;29;726;-73
2021/01/24 12:01:05;;;;;;;;;;;;;;;21.31;30.00;96777.91;4962021;29;659;-75
2021/01/24 12:03:30;;;;;;;;;;;;;;;21.48;29.57;96794.56;4961843;29;615;-74
2021/01/24 12:05:56;;;;;;;;;;;;;;;21.72;29.70;96798.31;4961456;28;1906;-75
2021/01/24 12:08:21;;;;;;;;;;;;;;;21.94;29.23;96785.97;4961560;29;934;-74
2021/01/24 12:10:47;;;;;;;;;;;;;;;22.25;28.88;96786.53;4961866;29;875;-75
2021/01/24 12:13:18;;;;;;;;;;;;;;;22.09;29.08;96792.53;4961817;29;687;-75
2021/01/24 12:15:44;;;;;;;;;;;;;;;21.85;29.30;96796.06;4961921;29;608;-74
2021/01/24 12:18:09;;;;;;;;;;;;;;;21.65;29.58;96798.63;4961677;29;676;-74
2021/01/24 12:20:35;;;;;;;;;;;;;;;21.24;29.70;96805.69;4961533;29;971;-73
2021/01/24 12:23:00;;;;;;;;;;;;;;;21.77;29.62;96800.50;4961323;29;979;-75
2021/01/24 12:25:26;;;;;;;;;;;;;;;22.04;29.08;96813.81;4961651;29;1914;-75
2021/01/24 12:27:51;;;;;;;;;;;;;;;22.15;28.66;96806.88;4961621;29;636;-75
2021/01/24 12:30:17;;;;;;;;;;;;;;;22.18;28.90;96806.72;4961972;29;639;-75
2021/01/24 12:32:42;;;;;;;;;;;;;;;21.78;29.15;96810.56;4944661;29;774;-74
2021/01/24 12:35:08;;;;;;;;;;;;;;;21.50;29.52;96817.50;4961199;29;1097;-75
2021/01/24 12:37:34;;;;;;;;;;;;;;;21.57;28.99;96817.22;4961474;29;824;-75
2021/01/24 12:40:00;;;;;;;;;;;;;;;21.79;29.42;96826.28;4961550;29;1020;-75
2021/01/24 12:42:25;;;;;;;;;;;;;;;22.07;29.01;96817.72;4961823;29;785;-74
2021/01/24 12:44:50;;;;;;;;;;;;;;;22.18;28.77;96820.88;4963173;28;1903;-74
2021/01/24 12:47:16;;;;;;;;;;;;;;;22.25;28.50;96817.69;4965168;29;865;-75
2021/01/24 12:49:41;;;;;;;;;;;;;;;22.07;28.48;96826.22;4964713;29;974;-75
2021/01/24 12:52:07;;;;;;;;;;;;;;;21.73;28.86;96828.19;4965154;29;823;-75
2021/01/24 12:54:32;;;;;;;;;;;;;;;21.45;29.32;96835.94;4964921;29;973;-75
2021/01/24 12:56:58;;;;;;;;;;;;;;;21.70;29.76;96825.50;4965129;29;686;-75
2021/01/24 12:59:23;;;;;;;;;;;;;;;21.98;29.17;96826.25;4964907;29;699;-74
2021/01/24 13:01:49;;;;;;;;;;;;;;;22.07;28.84;96831.88;4965251;29;650;-73
2021/01/24 13:04:14;;;;;;;;;;;;;;;22.21;28.49;96833.28;4964358;29;1963;-74
2021/01/24 13:06:40;;;;;;;;;;;;;;;21.95;28.87;96835.69;4964089;28;1036;-73
2021/01/24 13:09:08;;;;;;;;;;;;;;;21.57;29.33;96837.81;4964621;29;993;-75
2021/01/24 13:11:33;;;;;;;;;;;;;;;21.26;29.32;96837.94;4964944;29;663;-75
2021/01/24 13:13:59;;;;;;;;;;;;;;;21.89;29.27;96840.44;4964544;29;657;-74
2021/01/24 13:16:24;;;;;;;;;;;;;;;22.12;28.68;96836.94;4964575;29;674;-75
2021/01/24 13:18:50;;;;;;;;;;;;;;;22.32;28.42;96839.22;4964214;29;945;-75
2021/01/24 13:21:15;;;;;;;;;;;;;;;22.02;28.75;96849.50;4964322;29;909;-75
2021/01/24 13:23:41;;;;;;;;;;;;;;;21.66;29.02;96854.00;4964730;29;816;-73
2021/01/24 13:26:06;;;;;;;;;;;;;;;21.39;29.37;96848.31;4964680;29;1915;-74
2021/01/24 13:28:31;;;;;;;;;;;;;;;21.71;29.50;96847.69;4964318;29;675;-75
2021/01/24 13:30:57;;;;;;;;;;;;;;;22.16;28.60;96843.22;4964450;29;695;-75
2021/01/24 13:33:22;;;;;;;;;;;;;;;22.20;28.65;96840.22;4964028;29;817;-75
2021/01/24 13:35:48;;;;;;;;;;;;;;;22.32;28.63;96848.50;4964071;29;867;-75
2021/01/24 13:38:13;;;;;;;;;;;;;;;22.18;28.67;96846.38;4964033;29;825;-75
2021/01/24 13:40:39;;;;;;;;;;;;;;;21.31;29.91;96847.88;4964562;29;635;-75
2021/01/24 13:43:04;;;;;;;;;;;;;;;21.59;29.27;96851.47;4964204;29;683;-74
2021/01/24 13:45:36;;;;;;;;;;;;;;;21.54;29.49;96849.28;4964001;29;1974;-72
2021/01/24 13:48:01;;;;;;;;;;;;;;;22.09;28.72;96843.53;4963708;29;933;-72
2021/01/24 13:50:27;;;;;;;;;;;;;;;22.23;28.74;96845.72;4963709;29;867;-74
2021/01/24 13:52:53;;;;;;;;;;;;;;;22.19;28.63;96847.94;4963826;29;799;-75
2021/01/24 13:55:18;;;;;;;;;;;;;;;21.65;29.25;96849.56;4963819;28;715;-74
2021/01/24 13:57:44;;;;;;;;;;;;;;;21.56;29.21;96838.28;4963967;29;611;-75
2021/01/24 14:00:10;;;;;;;;;;;;;;;21.49;29.50;96847.84;4947465;29;644;-74
2021/01/24 14:02:36;;;;;;;;;;;;;;;22.04;28.94;96847.00;4963562;29;864;-74
2021/01/24 14:05:01;;;;;;;;;;;;;;;22.06;28.97;96850.91;4963481;29;1985;-75
2021/01/24 14:07:27;;;;;;;;;;;;;;;22.26;28.54;96853.25;4963500;28;1126;-73
2021/01/24 14:09:52;;;;;;;;;;;;;;;22.20;28.46;96855.19;4963564;29;711;-74
2021/01/24 14:12:18;;;;;;;;;;;;;;;21.68;29.02;96851.47;4963829;29;611;-75
2021/01/24 14:14:43;;;;;;;;;;;;;;;21.42;29.53;96853.06;4963568;29;655;-75